Time;durP1;ratioP1;P1;durP2;ratioP2;P2;SDS_P1;SDS_P2;PMS_P1;PMS_P2;Temp;Humidity;BMP_temperature;BMP_pressure;BME280_temperature;BME280_humidity;BME280_pressure;Samples;Min_cycle;Max_cycle;Signal;HPM_P1;HPM_P2
2022/03/02 00:02:25;;;;;;;11.35;3.50;;;;;;;4.64;29.97;99549.91;4474990;31;20080;-83
2022/03/02 00:04:50;;;;;;;11.88;3.67;;;;;;;4.84;29.58;99555.59;4501595;31;20092;-82
2022/03/02 00:07:15;;;;;;;10.88;3.60;;;;;;;4.88;29.61;99546.81;4502965;31;20106;-85
2022/03/02 00:09:41;;;;;;;13.35;4.32;;;;;;;4.87;29.73;99544.25;4503069;31;20092;-82
2022/03/02 00:12:06;;;;;;;12.18;4.20;;;;;;;4.89;29.64;99538.09;4503061;31;20172;-82
2022/03/02 00:14:32;;;;;;;11.25;3.62;;;;;;;4.91;29.51;99535.47;4502538;31;20130;-82
2022/03/02 00:16:57;;;;;;;13.43;3.60;;;;;;;4.92;29.41;99538.06;4488531;31;20096;-80
2022/03/02 00:19:23;;;;;;;13.80;3.85;;;;;;;4.62;29.93;99539.47;4488887;31;20153;-81
2022/03/02 00:21:49;;;;;;;13.70;3.80;;;;;;;4.76;29.84;99539.22;4503254;31;20114;-81
2022/03/02 00:24:14;;;;;;;11.27;3.12;;;;;;;4.79;29.67;99531.34;4488469;31;20389;-81
2022/03/02 00:26:40;;;;;;;13.35;3.53;;;;;;;4.81;29.92;99542.59;4502928;31;20096;-81
2022/03/02 00:29:05;;;;;;;11.82;3.10;;;;;;;4.82;29.99;99535.63;4488614;31;20104;-81
2022/03/02 00:31:31;;;;;;;13.70;4.30;;;;;;;4.83;30.02;99535.59;4493790;31;20321;-81
2022/03/02 00:33:56;;;;;;;10.88;3.28;;;;;;;4.79;29.89;99531.34;4472798;32;20084;-81
2022/03/02 00:36:22;;;;;;;11.07;3.40;;;;;;;4.73;29.90;99531.44;4487378;32;20096;-81
2022/03/02 00:38:47;;;;;;;10.45;3.37;;;;;;;4.49;30.35;99525.78;4487207;32;20085;-81
2022/03/02 00:41:13;;;;;;;12.55;3.62;;;;;;;4.65;30.15;99525.50;4472844;32;20403;-81
2022/03/02 00:43:38;;;;;;;13.52;4.05;;;;;;;4.61;30.39;99522.09;4472790;32;20091;-81
2022/03/02 00:46:03;;;;;;;11.10;3.28;;;;;;;4.66;30.72;99514.19;4486854;32;20579;-80
2022/03/02 00:48:29;;;;;;;10.88;3.78;;;;;;;4.62;31.03;99509.91;4475189;31;20131;-80
2022/03/02 00:50:55;;;;;;;11.38;3.70;;;;;;;4.63;30.97;99507.25;4491854;31;20088;-81
2022/03/02 00:53:20;;;;;;;9.45;2.85;;;;;;;4.61;31.18;99509.03;4486970;32;20412;-81
2022/03/02 00:55:46;;;;;;;12.30;3.50;;;;;;;4.49;31.59;99496.22;4486839;32;20116;-81
2022/03/02 00:58:11;;;;;;;13.75;3.80;;;;;;;4.54;31.26;99497.00;4486526;32;20137;-81
2022/03/02 01:00:37;;;;;;;12.75;3.67;;;;;;;4.57;31.17;99499.56;4486926;32;20200;-81
2022/03/02 01:03:03;;;;;;;13.05;4.03;;;;;;;4.48;31.34;99495.38;4459551;32;20089;-81
2022/03/02 01:05:29;;;;;;;11.20;3.58;;;;;;;4.31;31.54;99492.22;4473366;32;20124;-80
2022/03/02 01:07:54;;;;;;;11.23;3.62;;;;;;;4.36;31.38;99482.53;4487265;31;20144;-81
2022/03/02 01:10:20;;;;;;;11.30;3.30;;;;;;;4.36;31.33;99485.16;4502448;31;20111;-81
2022/03/02 01:12:46;;;;;;;10.35;3.35;;;;;;;4.39;31.64;99479.88;4488333;31;20426;-81
2022/03/02 01:15:12;;;;;;;11.52;3.33;;;;;;;4.30;31.71;99480.91;4497694;31;20111;-81
2022/03/02 01:17:38;;;;;;;11.30;3.53;;;;;;;4.25;31.81;99479.25;4499585;31;20463;-81
2022/03/02 01:20:06;;;;;;;11.10;3.08;;;;;;;4.32;31.81;99462.63;4486717;31;20084;-82
2022/03/02 01:22:32;;;;;;;12.98;3.80;;;;;;;4.30;31.83;99467.84;4502419;31;20422;-81
2022/03/02 01:24:58;;;;;;;11.68;2.90;;;;;;;4.24;32.02;99470.59;4487411;31;20119;-81
2022/03/02 01:27:23;;;;;;;13.70;3.90;;;;;;;4.29;32.33;99457.47;4472313;32;20097;-81
2022/03/02 01:29:51;;;;;;;11.18;3.60;;;;;;;4.12;32.42;99449.94;4487265;31;20403;-81
2022/03/02 01:32:17;;;;;;;13.02;4.05;;;;;;;4.17;32.32;99452.47;4486344;32;20084;-82
2022/03/02 01:34:42;;;;;;;14.25;3.30;;;;;;;4.11;32.97;99456.91;4486181;32;20100;-81
2022/03/02 01:37:08;;;;;;;11.10;3.40;;;;;;;4.14;32.76;99449.03;4486127;32;20080;-81
2022/03/02 01:39:33;;;;;;;12.95;3.95;;;;;;;4.16;32.56;99443.78;4485956;32;20745;-81
2022/03/02 01:41:59;;;;;;;11.77;3.47;;;;;;;4.11;32.52;99443.88;4472034;32;20447;-81
2022/03/02 01:44:25;;;;;;;14.07;4.32;;;;;;;4.10;32.35;99449.12;4460835;31;20134;-80
2022/03/02 01:46:50;;;;;;;11.63;3.70;;;;;;;4.12;32.16;99447.34;4493687;31;20088;-79
2022/03/02 01:49:16;;;;;;;11.80;3.40;;;;;;;4.12;32.37;99442.13;4480421;31;20115;-80
2022/03/02 01:51:41;;;;;;;12.98;3.58;;;;;;;4.04;32.66;99442.25;4474937;31;20488;-79
2022/03/02 01:54:07;;;;;;;11.00;3.87;;;;;;;4.08;32.90;99443.06;4473718;31;20209;-80
2022/03/02 01:56:34;;;;;;;12.18;3.60;;;;;;;4.07;32.89;99444.78;4486742;31;20111;-81
2022/03/02 01:58:59;;;;;;;13.15;3.58;;;;;;;4.08;32.98;99437.84;4471663;32;20486;-78
2022/03/02 02:01:25;;;;;;;11.48;3.42;;;;;;;4.08;33.25;99430.03;4498085;31;20080;-77
2022/03/02 02:03:51;;;;;;;10.15;3.28;;;;;;;4.07;33.13;99436.97;4475843;31;20111;-80
2022/03/02 02:06:16;;;;;;;12.30;3.75;;;;;;;4.07;32.99;99436.13;4480461;31;20372;-80
2022/03/02 02:08:42;;;;;;;14.35;3.58;;;;;;;4.02;33.13;99440.53;4493009;31;20084;-79
2022/03/02 02:11:12;;;;;;;13.38;4.10;;;;;;;3.90;33.25;99431.19;4480805;31;20115;-80
2022/03/02 02:13:38;;;;;;;11.52;3.25;;;;;;;3.99;33.18;99425.81;4486946;31;20088;-80
2022/03/02 02:16:05;;;;;;;11.25;3.35;;;;;;;4.02;33.04;99425.78;4484351;32;20157;-80
2022/03/02 02:18:32;;;;;;;12.60;3.90;;;;;;;4.02;33.05;99423.19;4484469;32;20114;-80
2022/03/02 02:21:05;;;;;;;10.45;3.25;;;;;;;3.90;33.12;99424.25;4484441;32;20412;-80
2022/03/02 02:23:30;;;;;;;12.27;4.15;;;;;;;3.96;32.72;99430.22;4484713;32;20095;-80
2022/03/02 02:25:56;;;;;;;12.05;3.65;;;;;;;3.96;33.00;99425.91;4485582;31;20472;-80
2022/03/02 02:28:24;;;;;;;9.45;2.87;;;;;;;3.96;33.32;99422.41;4485764;31;20432;-81
2022/03/02 02:30:52;;;;;;;12.82;3.78;;;;;;;3.94;33.56;99423.31;4476786;32;20076;-80
2022/03/02 02:33:18;;;;;;;9.98;3.10;;;;;;;3.97;33.62;99425.00;4488383;31;20107;-78
2022/03/02 02:35:44;;;;;;;12.00;3.28;;;;;;;3.98;33.66;99420.63;4479142;31;20112;-78
2022/03/02 02:38:10;;;;;;;11.35;3.87;;;;;;;3.73;33.54;99423.69;4482133;31;20089;-79
2022/03/02 02:40:36;;;;;;;9.80;3.22;;;;;;;3.91;33.17;99425.09;4493775;31;20134;-80
2022/03/02 02:43:02;;;;;;;10.05;3.28;;;;;;;3.88;33.33;99417.31;4499033;31;20142;-79
2022/03/02 02:45:27;;;;;;;11.50;3.80;;;;;;;3.93;33.40;99425.94;4488172;31;20114;-80
2022/03/02 02:47:54;;;;;;;11.25;3.78;;;;;;;3.94;33.80;99433.75;4472506;32;20101;-80
2022/03/02 02:50:29;;;;;;;11.82;3.85;;;;;;;3.88;33.88;99427.75;4472335;32;20097;-80
2022/03/02 02:52:55;;;;;;;11.57;3.65;;;;;;;3.90;34.32;99423.38;4472401;32;20100;-80
2022/03/02 02:55:24;;;;;;;11.05;3.30;;;;;;;3.87;34.48;99424.31;4473232;32;20108;-80
2022/03/02 02:57:50;;;;;;;11.12;3.30;;;;;;;3.86;34.46;99426.94;4487677;32;20115;-80
2022/03/02 03:00:18;;;;;;;11.05;3.00;;;;;;;3.80;34.57;99425.28;4487489;31;20124;-80
2022/03/02 03:02:49;;;;;;;14.00;3.40;;;;;;;3.79;34.61;99420.13;4473409;32;20103;-80
2022/03/02 03:05:17;;;;;;;14.32;3.30;;;;;;;3.75;34.56;99421.91;4473452;32;20108;-80
2022/03/02 03:07:43;;;;;;;12.60;3.53;;;;;;;3.72;34.51;99420.19;4487662;32;20450;-81
2022/03/02 03:10:10;;;;;;;12.60;4.53;;;;;;;3.70;34.48;99418.50;4498250;31;20128;-80
2022/03/02 03:12:36;;;;;;;13.93;3.90;;;;;;;3.64;34.78;99424.69;4489168;31;20121;-80
2022/03/02 03:15:06;;;;;;;10.65;3.42;;;;;;;3.66;34.91;99422.91;4503263;31;20092;-81
2022/03/02 03:17:32;;;;;;;10.85;3.70;;;;;;;3.68;34.79;99423.75;4498310;31;20443;-81
2022/03/02 03:19:58;;;;;;;11.15;3.20;;;;;;;3.60;34.71;99423.00;4473009;32;20084;-80
2022/03/02 03:22:24;;;;;;;10.68;3.08;;;;;;;3.63;34.58;99427.31;4487384;32;20432;-81
2022/03/02 03:24:49;;;;;;;13.45;3.80;;;;;;;3.49;34.87;99430.13;4460397;32;20394;-80
2022/03/02 03:27:15;;;;;;;12.15;3.70;;;;;;;3.22;34.52;99432.25;4473312;32;20100;-80
2022/03/02 03:29:40;;;;;;;11.68;3.42;;;;;;;3.12;34.47;99418.50;4487779;32;20098;-81
2022/03/02 03:32:06;;;;;;;12.63;3.72;;;;;;;3.07;34.54;99416.84;4487647;32;20239;-81
2022/03/02 03:34:32;;;;;;;11.57;3.90;;;;;;;2.97;34.79;99429.13;4473286;32;20109;-79
2022/03/02 03:36:57;;;;;;;11.60;3.60;;;;;;;2.73;35.17;99425.97;4473385;32;20133;-81
2022/03/02 03:39:23;;;;;;;12.02;3.90;;;;;;;2.72;35.43;99423.38;4487382;32;20084;-81
2022/03/02 03:41:48;;;;;;;12.65;4.00;;;;;;;2.53;35.69;99417.53;4473426;32;20105;-81
2022/03/02 03:44:14;;;;;;;12.50;4.03;;;;;;;2.67;35.30;99423.47;4488245;31;20096;-80
2022/03/02 03:46:39;;;;;;;12.73;3.92;;;;;;;2.46;36.17;99418.53;4473147;32;20080;-80
2022/03/02 03:49:05;;;;;;;13.60;4.80;;;;;;;2.51;36.21;99419.31;4487358;32;20092;-81
2022/03/02 03:51:30;;;;;;;12.18;3.67;;;;;;;2.62;36.18;99416.59;4487760;31;20424;-81
2022/03/02 03:53:55;;;;;;;13.23;3.92;;;;;;;2.76;36.06;99414.66;4501042;31;20368;-81
2022/03/02 03:56:21;;;;;;;10.98;3.58;;;;;;;2.68;35.77;99414.75;4488240;31;20092;-82
2022/03/02 03:58:47;;;;;;;12.55;3.80;;;;;;;2.85;35.68;99417.16;4487508;32;20084;-82
2022/03/02 04:01:12;;;;;;;14.07;4.12;;;;;;;2.94;35.66;99417.03;4499333;31;20111;-81
2022/03/02 04:03:38;;;;;;;12.15;4.00;;;;;;;3.03;35.64;99416.03;4503068;31;20387;-81
2022/03/02 04:06:04;;;;;;;14.75;3.80;;;;;;;3.04;35.45;99411.72;4503093;31;20167;-82
2022/03/02 04:08:29;;;;;;;12.55;3.67;;;;;;;3.13;35.14;99406.37;4503007;31;20103;-82
2022/03/02 04:10:54;;;;;;;14.40;3.90;;;;;;;3.18;34.93;99401.94;4488636;31;20100;-81
2022/03/02 04:13:20;;;;;;;11.60;3.75;;;;;;;3.19;35.07;99405.41;4502957;31;20088;-82
2022/03/02 04:15:46;;;;;;;12.32;4.30;;;;;;;3.18;34.93;99411.50;4503079;31;20102;-81
2022/03/02 04:18:12;;;;;;;14.02;4.05;;;;;;;3.19;34.79;99406.28;4502897;31;20096;-82
2022/03/02 04:20:37;;;;;;;13.00;4.37;;;;;;;3.05;35.16;99406.50;4488788;31;20526;-82
2022/03/02 04:23:03;;;;;;;13.13;4.32;;;;;;;2.85;35.33;99411.94;4475234;31;20100;-82
2022/03/02 04:25:29;;;;;;;12.98;3.87;;;;;;;2.89;35.85;99413.63;4501549;31;20129;-82
2022/03/02 04:27:54;;;;;;;13.10;3.95;;;;;;;3.00;35.46;99407.44;4475197;32;20088;-81
2022/03/02 04:30:20;;;;;;;12.40;3.95;;;;;;;2.87;35.66;99402.38;4472790;32;20100;-81
2022/03/02 04:32:46;;;;;;;13.60;3.83;;;;;;;2.91;35.73;99408.41;4487072;32;20149;-81
2022/03/02 04:35:12;;;;;;;13.07;3.97;;;;;;;2.59;36.01;99411.41;4472638;32;20096;-81
2022/03/02 04:37:38;;;;;;;13.68;4.18;;;;;;;2.42;36.07;99396.88;4472766;32;20081;-81
2022/03/02 04:40:06;;;;;;;12.57;3.80;;;;;;;2.63;35.82;99402.72;4454222;32;20127;-82
2022/03/02 04:42:32;;;;;;;14.20;4.30;;;;;;;2.54;35.97;99401.06;4454583;32;20105;-81
2022/03/02 04:44:57;;;;;;;13.38;4.80;;;;;;;2.69;35.91;99398.28;4455606;32;20147;-82
2022/03/02 04:47:22;;;;;;;13.00;4.18;;;;;;;2.61;35.93;99401.84;4455619;32;20080;-81
2022/03/02 04:49:48;;;;;;;12.32;3.90;;;;;;;2.66;35.98;99397.47;4454797;32;20105;-81
2022/03/02 04:52:13;;;;;;;15.25;4.75;;;;;;;2.67;36.36;99397.44;4455789;32;20089;-80
2022/03/02 04:57:23;;;;;;;11.68;3.83;;;;;;;2.85;36.23;99385.94;4456338;32;20154;-80
2022/03/02 04:59:48;;;;;;;13.60;4.03;;;;;;;2.81;36.51;99386.00;4455488;32;20090;-81
2022/03/02 05:02:14;;;;;;;12.95;4.18;;;;;;;2.87;36.10;99375.50;4466946;32;20124;-80
2022/03/02 05:04:39;;;;;;;11.23;3.30;;;;;;;2.75;36.16;99374.78;4455621;32;20116;-82
2022/03/02 05:07:04;;;;;;;12.15;3.75;;;;;;;2.47;35.63;99371.69;4455484;32;20107;-81
2022/03/02 05:09:30;;;;;;;11.73;4.10;;;;;;;2.64;35.20;99375.81;4454323;32;20131;-82
2022/03/02 05:11:55;;;;;;;12.27;3.80;;;;;;;2.75;35.36;99376.53;4441438;32;20142;-82
2022/03/02 05:14:21;;;;;;;12.00;3.65;;;;;;;2.62;35.49;99381.03;4455166;32;20089;-82
2022/03/02 05:16:46;;;;;;;12.43;4.32;;;;;;;2.37;36.11;99381.31;4459337;32;20076;-82
2022/03/02 05:19:12;;;;;;;11.00;3.70;;;;;;;2.38;36.33;99379.59;4463800;32;20373;-82
2022/03/02 05:21:37;;;;;;;11.63;3.55;;;;;;;2.63;36.31;99374.97;4460343;32;20174;-82
2022/03/02 05:24:03;;;;;;;12.73;3.72;;;;;;;2.71;36.35;99370.50;4465616;32;20077;-80
2022/03/02 05:26:29;;;;;;;13.43;4.47;;;;;;;2.68;36.29;99374.88;4463555;32;20107;-81
2022/03/02 05:28:54;;;;;;;12.00;3.72;;;;;;;2.69;36.16;99376.63;4455245;32;20098;-81
2022/03/02 05:31:21;;;;;;;12.73;3.85;;;;;;;2.80;36.14;99373.84;4454231;32;20093;-81
2022/03/02 05:33:47;;;;;;;13.88;3.92;;;;;;;2.84;35.70;99379.03;4467019;32;20106;-81
2022/03/02 05:36:13;;;;;;;11.05;3.78;;;;;;;2.90;35.67;99371.13;4455084;32;20326;-81
2022/03/02 05:38:38;;;;;;;12.43;3.90;;;;;;;2.91;35.57;99370.22;4455382;32;20093;-81
2022/03/02 05:41:03;;;;;;;13.20;3.90;;;;;;;3.00;35.84;99377.06;4481813;31;20119;-81
2022/03/02 05:43:29;;;;;;;15.50;4.30;;;;;;;3.04;35.74;99368.31;4493624;31;20463;-81
2022/03/02 05:45:54;;;;;;;11.70;4.00;;;;;;;3.04;34.56;99373.53;4495868;31;20093;-79
2022/03/02 05:48:20;;;;;;;11.70;3.85;;;;;;;2.95;34.58;99376.25;4487865;31;20109;-80
2022/03/02 05:50:45;;;;;;;13.88;4.20;;;;;;;2.97;34.45;99373.63;4499203;31;20088;-81
2022/03/02 05:53:10;;;;;;;13.32;4.25;;;;;;;3.09;34.29;99376.03;4495082;31;20458;-79
2022/03/02 05:55:36;;;;;;;13.00;4.70;;;;;;;3.24;33.70;99373.22;4504264;31;20471;-77
2022/03/02 05:58:01;;;;;;;13.95;4.32;;;;;;;3.17;33.90;99358.59;4486219;32;20159;-80
2022/03/02 06:00:27;;;;;;;13.48;4.75;;;;;;;3.27;33.98;99367.97;4487103;31;20502;-78
2022/03/02 06:02:52;;;;;;;13.20;4.47;;;;;;;3.53;33.77;99362.34;4497549;31;20087;-79
2022/03/02 06:05:18;;;;;;;11.60;3.75;;;;;;;3.65;33.61;99363.00;4487395;31;20107;-79
2022/03/02 06:07:43;;;;;;;13.27;4.22;;;;;;;3.78;33.53;99359.28;4485623;32;20122;-80
2022/03/02 06:10:09;;;;;;;12.10;4.07;;;;;;;3.66;33.97;99365.59;4485681;32;20118;-80
2022/03/02 06:12:35;;;;;;;13.40;4.40;;;;;;;3.74;34.04;99363.69;4483514;31;20088;-80
2022/03/02 06:15:01;;;;;;;12.98;4.65;;;;;;;3.96;33.74;99368.56;4503254;31;20087;-80
2022/03/02 06:17:26;;;;;;;12.07;4.40;;;;;;;3.92;33.88;99366.88;4489037;31;20104;-81
2022/03/02 06:19:52;;;;;;;13.57;4.60;;;;;;;3.97;33.73;99367.66;4503681;31;20077;-79
2022/03/02 06:22:23;;;;;;;13.32;4.57;;;;;;;3.65;34.50;99366.50;4488561;31;20100;-79
2022/03/02 06:24:51;;;;;;;12.63;4.10;;;;;;;3.73;34.21;99367.22;4488687;31;20092;-76
2022/03/02 06:27:20;;;;;;;16.52;4.37;;;;;;;3.82;34.05;99373.12;4489261;31;20109;-80
2022/03/02 06:29:45;;;;;;;13.05;4.07;;;;;;;3.81;33.91;99371.44;4503557;31;20608;-80
2022/03/02 06:32:11;;;;;;;13.57;4.18;;;;;;;3.88;33.84;99368.69;4503352;31;20092;-79
2022/03/02 06:34:36;;;;;;;13.27;3.95;;;;;;;3.89;33.97;99377.34;4503329;31;20133;-80
2022/03/02 06:37:02;;;;;;;14.87;4.43;;;;;;;3.71;34.25;99370.75;4485082;32;20165;-79
2022/03/02 06:39:28;;;;;;;13.75;4.95;;;;;;;4.02;33.86;99372.75;4472805;32;20100;-79
2022/03/02 06:42:09;;;;;;;13.50;4.10;;;;;;;4.09;33.56;99377.84;4487437;32;20096;-79
2022/03/02 06:44:57;;;;;;;13.18;4.22;;;;;;;4.37;33.34;99364.28;4473910;32;20072;-79
2022/03/02 06:47:27;;;;;;;12.90;4.57;;;;;;;4.41;33.41;99365.09;4487724;32;20494;-80
2022/03/02 06:50:07;;;;;;;14.70;4.68;;;;;;;4.49;33.27;99371.84;4473186;32;20556;-80
2022/03/02 06:52:44;;;;;;;14.73;4.50;;;;;;;4.38;33.51;99367.75;4473354;32;20088;-78
2022/03/02 06:55:12;;;;;;;11.90;4.28;;;;;;;4.68;33.29;99355.81;4487520;32;20084;-80
2022/03/02 06:57:38;;;;;;;13.00;4.50;;;;;;;4.82;32.96;99353.75;4473316;32;20545;-80
2022/03/02 07:00:09;;;;;;;14.80;4.97;;;;;;;4.84;33.10;99358.94;4487643;32;20161;-79
2022/03/02 07:03:04;;;;;;;13.57;5.12;;;;;;;5.00;32.61;99355.09;4487701;32;20167;-80
2022/03/02 07:05:30;;;;;;;11.65;4.10;;;;;;;5.16;32.25;99353.00;4473631;32;20145;-80
2022/03/02 07:07:55;;;;;;;12.75;4.72;;;;;;;5.23;32.33;99357.16;4488644;31;20084;-81
2022/03/02 07:10:21;;;;;;;15.88;5.00;;;;;;;5.33;32.04;99347.34;4487772;32;20150;-80
2022/03/02 07:12:46;;;;;;;14.63;4.68;;;;;;;5.27;32.44;99348.38;4487657;32;20076;-81
2022/03/02 07:15:12;;;;;;;18.77;5.12;;;;;;;5.45;31.96;99344.47;4473348;32;20387;-82
2022/03/02 07:17:39;;;;;;;13.93;5.00;;;;;;;5.60;31.97;99340.59;4487763;32;20149;-81
2022/03/02 07:20:07;;;;;;;15.45;4.93;;;;;;;5.86;32.06;99346.91;4473470;32;20483;-81
2022/03/02 07:22:38;;;;;;;12.88;4.80;;;;;;;5.95;31.88;99346.69;4487876;32;20084;-81
2022/03/02 07:25:29;;;;;;;13.68;4.70;;;;;;;6.17;31.50;99335.66;4487573;32;20069;-81
2022/03/02 07:27:56;;;;;;;16.17;5.75;;;;;;;6.38;31.33;99329.81;4473256;32;20168;-81
2022/03/02 07:30:22;;;;;;;15.30;5.40;;;;;;;6.53;31.13;99327.63;4473213;32;20501;-81
2022/03/02 07:32:47;;;;;;;13.90;4.95;;;;;;;6.63;30.66;99335.19;4473371;31;20191;-80
2022/03/02 07:35:16;;;;;;;15.38;5.22;;;;;;;6.59;30.57;99336.19;4473851;32;20160;-81
2022/03/02 07:37:45;;;;;;;14.38;4.95;;;;;;;6.65;30.56;99328.13;4473074;32;20101;-80
2022/03/02 07:40:12;;;;;;;12.63;4.22;;;;;;;6.70;30.46;99330.59;4472845;32;20104;-80
2022/03/02 07:42:37;;;;;;;12.57;4.75;;;;;;;6.55;29.68;99324.09;4487406;32;20183;-79
2022/03/02 07:45:04;;;;;;;14.87;4.72;;;;;;;6.66;29.56;99324.63;4487273;32;20084;-81
2022/03/02 07:47:29;;;;;;;13.27;4.43;;;;;;;6.75;28.66;99317.41;4473734;32;20104;-81
2022/03/02 07:49:55;;;;;;;14.45;4.43;;;;;;;6.93;29.24;99323.81;4473032;32;20127;-81
2022/03/02 07:52:26;;;;;;;16.12;4.32;;;;;;;6.94;28.80;99313.31;4472922;31;20092;-79
2022/03/02 07:54:58;;;;;;;12.20;4.25;;;;;;;7.08;28.38;99315.47;4502429;31;20079;-81
2022/03/02 07:57:24;;;;;;;15.85;5.03;;;;;;;6.98;28.45;99307.06;4487490;31;20092;-81
2022/03/02 07:59:50;;;;;;;11.70;4.30;;;;;;;7.06;28.23;99310.28;4480366;31;20143;-79
2022/03/02 08:02:18;;;;;;;12.43;4.15;;;;;;;7.03;28.02;99309.50;4467245;32;20111;-81
2022/03/02 08:04:43;;;;;;;11.82;4.00;;;;;;;6.91;28.15;99302.06;4481921;31;20095;-81
2022/03/02 08:07:10;;;;;;;14.48;4.12;;;;;;;7.07;28.10;99296.28;4494570;31;20122;-81
2022/03/02 08:09:36;;;;;;;10.30;3.62;;;;;;;7.00;28.40;99302.63;4495303;31;20151;-81
2022/03/02 08:12:01;;;;;;;11.77;3.80;;;;;;;7.19;28.27;99286.31;4477518;31;20115;-82
2022/03/02 08:14:28;;;;;;;15.32;4.62;;;;;;;7.16;28.11;99300.37;4472122;32;20116;-81
2022/03/02 08:16:54;;;;;;;14.60;4.87;;;;;;;7.33;28.32;99298.97;4495138;31;20154;-80
2022/03/02 08:19:20;;;;;;;13.93;4.65;;;;;;;7.14;28.84;99289.06;4498183;31;20123;-79
2022/03/02 08:21:51;;;;;;;12.98;4.80;;;;;;;7.15;28.85;99287.34;4484478;31;20122;-80
2022/03/02 08:24:17;;;;;;;12.65;4.62;;;;;;;7.06;29.68;99285.84;4494233;31;20096;-81
2022/03/02 08:26:48;;;;;;;11.73;4.20;;;;;;;7.21;29.10;99290.59;4485902;32;20134;-80
2022/03/02 08:29:13;;;;;;;13.32;4.47;;;;;;;7.33;29.51;99289.34;4486091;32;20108;-80
2022/03/02 08:31:41;;;;;;;12.18;4.32;;;;;;;7.46;29.22;99281.94;4485855;32;20115;-80
2022/03/02 08:34:07;;;;;;;15.38;5.40;;;;;;;7.28;29.52;99281.62;4486855;31;20115;-81
2022/03/02 08:36:34;;;;;;;13.43;4.50;;;;;;;7.15;29.49;99287.34;4491790;31;20127;-81
2022/03/02 08:39:02;;;;;;;11.57;4.25;;;;;;;7.18;29.83;99288.06;4491550;31;20396;-79
2022/03/02 08:41:28;;;;;;;11.63;4.37;;;;;;;7.29;29.72;99277.25;4487083;31;20156;-80
2022/03/02 08:43:53;;;;;;;15.05;4.70;;;;;;;7.23;29.77;99274.84;4486499;31;20088;-80
2022/03/02 08:46:20;;;;;;;13.57;4.43;;;;;;;7.21;29.66;99274.88;4495893;31;20340;-81
2022/03/02 08:48:45;;;;;;;12.13;4.50;;;;;;;7.35;29.51;99269.16;4487623;31;20108;-80
2022/03/02 08:51:11;;;;;;;11.65;4.12;;;;;;;7.22;29.97;99270.47;4487548;31;20408;-80
2022/03/02 08:53:37;;;;;;;12.77;4.40;;;;;;;7.47;29.71;99263.53;4472638;32;20153;-82
2022/03/02 08:56:04;;;;;;;12.43;3.92;;;;;;;7.53;29.65;99274.69;4486717;32;20100;-82
2022/03/02 08:58:30;;;;;;;10.85;3.92;;;;;;;7.67;29.24;99256.72;4486850;32;20143;-82
2022/03/02 09:00:58;;;;;;;12.52;4.55;;;;;;;7.69;29.24;99260.16;4472618;32;20096;-81
2022/03/02 09:03:24;;;;;;;13.90;4.10;;;;;;;7.27;29.39;99256.31;4472433;32;20101;-80
2022/03/02 09:05:49;;;;;;;11.02;4.18;;;;;;;7.50;29.40;99259.94;4486663;32;20128;-81
2022/03/02 09:08:15;;;;;;;14.23;4.15;;;;;;;7.52;29.04;99246.78;4472317;32;20166;-82
2022/03/02 09:10:42;;;;;;;13.38;4.20;;;;;;;7.57;29.08;99250.06;4486629;32;20379;-81
2022/03/02 09:13:09;;;;;;;11.85;3.70;;;;;;;7.79;29.38;99252.81;4486481;32;20194;-81
2022/03/02 09:15:37;;;;;;;12.77;4.43;;;;;;;7.91;28.75;99252.38;4491232;31;20458;-81
2022/03/02 09:18:03;;;;;;;15.70;3.72;;;;;;;7.99;28.50;99241.59;4490049;31;20093;-81
2022/03/02 09:20:30;;;;;;;12.05;4.05;;;;;;;8.07;28.25;99240.41;4472498;32;20445;-81
2022/03/02 09:22:56;;;;;;;12.53;3.70;;;;;;;8.09;27.62;99242.97;4491749;31;20470;-81
2022/03/02 09:25:23;;;;;;;13.82;4.12;;;;;;;8.21;26.69;99232.03;4491556;31;20459;-81
2022/03/02 09:27:50;;;;;;;12.57;4.03;;;;;;;8.22;27.02;99233.72;4502570;31;20111;-81
2022/03/02 09:30:16;;;;;;;10.73;3.42;;;;;;;8.25;26.35;99244.09;4487898;31;20084;-80
2022/03/02 09:32:42;;;;;;;13.80;4.37;;;;;;;7.95;26.09;99232.13;4475530;32;20156;-81
2022/03/02 09:35:14;;;;;;;16.15;4.90;;;;;;;7.94;26.24;99247.03;4472155;32;20104;-81
2022/03/02 09:37:42;;;;;;;13.20;4.00;;;;;;;7.96;26.05;99237.31;4486556;32;20096;-80
2022/03/02 09:40:21;;;;;;;14.18;4.43;;;;;;;7.94;26.69;99230.41;4486188;32;20393;-81
2022/03/02 09:42:53;;;;;;;;;;;;;;;8.07;26.15;99234.28;4486580;32;20428;-81
2022/03/02 09:45:20;;;;;;;12.13;4.25;;;;;;;7.99;26.69;99228.47;4486984;31;20026;-81
2022/03/02 09:47:52;;;;;;;13.87;4.30;;;;;;;7.95;26.26;99234.75;4486438;32;20448;-81
2022/03/02 09:50:18;;;;;;;13.23;4.78;;;;;;;7.93;25.95;99231.31;4474247;32;20179;-81
2022/03/02 09:52:46;;;;;;;13.55;5.00;;;;;;;7.84;26.23;99233.38;4488390;32;20073;-81
2022/03/02 09:55:14;;;;;;;13.13;4.47;;;;;;;7.88;26.30;99221.88;4488308;32;20111;-81
2022/03/02 09:57:42;;;;;;;14.52;4.50;;;;;;;8.05;25.83;99221.25;4473907;32;20104;-81
2022/03/02 10:00:08;;;;;;;;;;;;;;;8.03;25.71;99217.81;4474062;32;20077;-81
2022/03/02 10:02:40;;;;;;;12.75;4.05;;;;;;;8.04;25.33;99216.91;4473924;32;19975;-81
2022/03/02 10:05:09;;;;;;;12.37;4.43;;;;;;;7.93;26.01;99216.44;4488041;32;20104;-81
2022/03/02 10:07:44;;;;;;;11.57;3.70;;;;;;;8.01;25.60;99221.41;4488313;32;20096;-81
2022/03/02 10:10:17;;;;;;;10.77;4.18;;;;;;;8.11;25.43;99216.66;4488214;32;20182;-81
2022/03/02 10:12:43;;;;;;;13.02;4.22;;;;;;;8.18;25.33;99211.13;4474007;32;20077;-81
2022/03/02 10:15:13;;;;;;;12.63;4.22;;;;;;;8.12;25.52;99213.16;4475425;31;20148;-81
2022/03/02 10:17:41;;;;;;;13.52;4.50;;;;;;;8.23;25.90;99206.56;4486322;31;20169;-81
2022/03/02 10:20:14;;;;;;;;;;;;;;;8.36;25.25;99204.31;4504020;31;20076;-81
2022/03/02 10:22:45;;;;;;;13.80;4.40;;;;;;;8.38;25.26;99199.00;4473990;32;19991;-81
2022/03/02 10:25:13;;;;;;;12.35;4.28;;;;;;;8.38;25.23;99192.00;4473952;32;20164;-81
2022/03/02 10:28:02;;;;;;;12.45;4.22;;;;;;;8.43;25.50;99192.69;4460657;32;20109;-81
2022/03/02 10:30:39;;;;;;;13.30;3.70;;;;;;;8.46;25.14;99197.84;4460751;32;20191;-81
2022/03/02 10:33:19;;;;;;;14.05;4.90;;;;;;;8.44;25.30;99189.16;4473667;32;20084;-81
2022/03/02 10:35:53;;;;;;;12.32;4.30;;;;;;;8.17;25.04;99188.44;4487901;32;20123;-80
2022/03/02 10:38:42;;;;;;;15.07;4.90;;;;;;;8.38;25.37;99180.63;4473607;32;20097;-80
2022/03/02 10:41:08;;;;;;;12.82;4.78;;;;;;;8.53;25.12;99179.19;4486657;32;20104;-81
2022/03/02 10:43:48;;;;;;;14.10;5.32;;;;;;;8.60;25.22;99170.19;4473457;32;20119;-81
2022/03/02 10:46:19;;;;;;;13.62;4.75;;;;;;;8.65;25.48;99166.44;4493381;31;20099;-81
2022/03/02 10:48:47;;;;;;;11.70;4.15;;;;;;;8.72;24.98;99169.66;4503726;31;20455;-81
2022/03/02 10:51:14;;;;;;;12.37;4.43;;;;;;;8.80;24.79;99159.69;4476157;31;20448;-80
2022/03/02 10:53:40;;;;;;;13.90;4.40;;;;;;;8.84;24.03;99148.13;4489342;31;20189;-81
2022/03/02 10:56:08;;;;;;;14.57;4.50;;;;;;;8.87;24.03;99152.44;4489046;31;20546;-80
2022/03/02 10:58:34;;;;;;;13.18;4.20;;;;;;;8.86;24.23;99140.19;4481906;32;20117;-81
2022/03/02 11:01:00;;;;;;;13.98;4.80;;;;;;;8.90;24.00;99133.03;4487396;32;20168;-82
2022/03/02 11:03:27;;;;;;;12.18;4.35;;;;;;;8.90;23.78;99130.41;4473274;32;20436;-81
2022/03/02 11:06:00;;;;;;;11.63;4.37;;;;;;;8.82;24.01;99128.09;4487560;32;20129;-81
2022/03/02 11:08:25;;;;;;;13.50;4.28;;;;;;;8.95;23.69;99126.66;4487636;32;20223;-81
2022/03/02 11:10:51;;;;;;;12.35;4.50;;;;;;;8.84;24.09;99127.13;4473456;32;20103;-82
2022/03/02 11:13:16;;;;;;;14.00;4.62;;;;;;;8.82;24.47;99126.31;4487414;32;20103;-81
2022/03/02 11:15:49;;;;;;;12.18;4.53;;;;;;;8.91;24.82;99126.88;4478279;31;20129;-82
2022/03/02 11:18:17;;;;;;;14.63;5.45;;;;;;;9.02;24.57;99122.00;4503284;31;20158;-81
2022/03/02 11:20:58;;;;;;;14.02;4.32;;;;;;;8.92;24.24;99125.94;4489223;31;20109;-81
2022/03/02 11:23:24;;;;;;;12.07;4.40;;;;;;;8.97;24.94;99122.22;4489074;31;20080;-81
2022/03/02 11:25:52;;;;;;;15.57;5.15;;;;;;;9.00;24.74;99116.84;4485862;31;20096;-81
2022/03/02 11:28:20;;;;;;;13.20;5.18;;;;;;;9.08;24.18;99113.88;4495098;31;20415;-80
2022/03/02 11:30:54;;;;;;;13.38;5.60;;;;;;;9.18;24.19;99103.81;4472515;31;20095;-80
2022/03/02 11:33:25;;;;;;;12.65;4.87;;;;;;;8.94;24.31;99100.47;4480577;32;20096;-81
2022/03/02 11:35:59;;;;;;;14.73;5.45;;;;;;;9.00;24.21;99102.81;4473236;32;20128;-81
2022/03/02 11:38:29;;;;;;;14.23;5.30;;;;;;;8.90;24.31;99091.00;4488196;31;20116;-79